Latest Coastal Weather Observations for Neptune Island

IDT60701

Issued at 12:35 am EST Thursday 17 April 2014 (issued every 10 minutes, with the page automatically refreshed every 10 minutes)

About coastal observations | Map of coastal stations | Coastal observations for TAS | Marine services | Other Formats
Station Details ID: 018115 Name: NEPTUNE ISLAND Lat: -35.34 Lon: 136.12 Height: 32.0 m
Data from the previous 72 hours. | See also: Recent months at Neptune Island
Date/Time
EST
Temp

°C
Wind Pressure Rain
since 9am
mm
Weather Cloud Vis
km
Sea
Height
m
Swell
Dir
 
Speed
knots
Gust
knots
hPa Trend Height
m
Period
s
Dir
17/12:30am 17.5 SW 9 10 1019.5 - 0.0 - - - - - - -
17/12:00am 18.0 W 12 14 1019.8 - 0.0 - - - - - - -
 
Date/Time
EST
Temp

°C
Wind Pressure Rain
since 9am
mm
Weather Cloud Vis
km
Sea
Height
m
Swell
Dir
 
Speed
knots
Gust
knots
hPa Trend Height
m
Period
s
Dir
16/11:30pm 18.0 WNW 12 14 1019.9 - 0.0 - - - - - - -
16/11:00pm 18.0 W 11 13 1019.9 - 0.0 - - - - - - -
16/10:30pm 18.1 W 12 13 1019.9 - 0.0 - - - - - - -
16/10:00pm 18.3 W 11 13 1019.8 - 0.0 - - - - - - -
16/09:30pm 18.4 W 11 13 1019.7 - 0.0 - - - - - - -
16/09:00pm 18.3 W 12 14 1019.6 - 0.0 - - - - - - -
16/08:30pm 18.4 W 12 13 1019.4 - 0.0 - - - - - - -
16/08:00pm 18.5 W 12 14 1019.3 - 0.0 - - - - - - -
16/07:30pm 18.5 W 13 15 1019.2 - 0.0 - - - - - - -
16/07:00pm 18.5 W 16 18 1018.8 - 0.0 - - - - - - -
16/06:30pm 18.6 W 14 17 1018.6 - 0.0 - - - - - - -
16/06:00pm 19.0 W 14 16 1018.5 - 0.0 - - - - - - -
16/05:30pm 19.4 W 13 15 1018.2 - 0.0 - - - - - - -
16/05:00pm 19.8 W 14 16 1018.3 - 0.0 - - - - - - -
16/04:30pm 19.7 W 14 17 1018.3 - 0.0 - - - - - - -
16/04:00pm 20.1 WNW 14 15 1018.3 - 0.0 - - - - - - -
16/03:30pm 19.8 WNW 15 17 1018.2 - 0.0 - - - - - - -
16/03:00pm 20.1 W 16 18 1018.6 - 0.0 - - - - - - -
16/02:30pm 19.8 WNW 16 18 1018.4 - 0.0 - - - - - - -
16/02:00pm 20.3 WNW 14 17 1018.5 - 0.0 - - - - - - -
16/01:30pm 19.6 WNW 14 17 1019.2 - 0.0 - - - - - - -
16/01:00pm 20.4 WNW 12 13 1019.4 - 0.0 - - - - - - -
16/12:30pm 19.6 WNW 10 11 1019.7 - 0.0 - - - - - - -
16/12:00pm 19.5 NNW 11 12 1019.8 - 0.0 - - - - - - -
16/11:30am 19.2 NNW 11 13 1019.6 - 0.0 - - - - - - -
16/11:00am 18.5 N 14 16 1019.4 - 0.0 - - - - - - -
16/10:30am 19.2 N 14 16 1019.1 - 0.0 - - - - - - -
16/10:00am 18.0 N 12 15 1019.6 - 0.0 - - - - - - -
16/09:30am 19.2 N 11 13 1019.8 - 0.0 - - - - - - -
16/09:00am 17.9 N 11 12 1020.0 - 0.0 - - - - - - -
16/08:30am 17.5 N 11 13 1019.9 - 0.0 - - - - - - -
16/08:00am 16.7 NNE 13 14 1019.2 - 0.0 - - - - - - -
16/07:30am 16.2 NNE 11 13 1019.3 - 0.0 - - - - - - -
16/07:00am 16.2 NNE 13 15 1019.0 - 0.0 - - - - - - -
16/06:30am 16.3 NE 11 15 1018.8 - 0.0 - - - - - - -
16/06:00am 16.2 NE 10 15 1019.0 - 0.0 - - - - - - -
16/05:30am 16.2 NE 10 14 1019.2 - 0.0 - - - - - - -
16/05:00am 16.3 NE 10 14 1019.3 - 0.0 - - - - - - -
16/04:30am 16.1 NE 10 13 1019.6 - 0.0 - - - - - - -
16/04:00am 16.4 NE 8 11 1019.8 - 0.0 - - - - - - -
16/03:30am 16.5 ENE 10 12 1019.8 - 0.0 - - - - - - -
16/03:00am 16.5 ENE 9 10 1020.1 - 0.0 - - - - - - -
16/02:30am 16.5 NE 7 9 1020.6 - 0.0 - - - - - - -
16/02:00am 16.5 NE 8 9 1020.8 - 0.0 - - - - - - -
16/01:30am 16.3 ESE 7 9 1020.9 - 0.0 - - - - - - -
16/01:00am 15.5 ESE 5 6 1021.3 - 0.0 - - - - - - -
16/12:30am 15.7 ESE 5 6 1021.4 - 0.0 - - - - - - -
16/12:00am 15.9 SE 6 8 1021.6 - 0.0 - - - - - - -
 
Date/Time
EST
Temp

°C
Wind Pressure Rain
since 9am
mm
Weather Cloud Vis
km
Sea
Height
m
Swell
Dir
 
Speed
knots
Gust
knots
hPa Trend Height
m
Period
s
Dir
15/11:30pm 16.5 S 5 5 1021.8 - 0.0 - - - - - - -
15/11:00pm 16.7 S 6 7 1022.0 - 0.0 - - - - - - -
15/10:30pm 16.6 S 5 6 1022.0 - 0.0 - - - - - - -
15/10:00pm 16.8 S 6 7 1021.9 - 0.0 - - - - - - -
15/09:30pm 16.7 SSE 6 8 1021.7 - 0.0 - - - - - - -
15/09:00pm 16.9 SSE 7 8 1022.1 - 0.0 - - - - - - -
15/08:30pm 16.9 SSE 8 10 1022.2 - 0.0 - - - - - - -
15/08:00pm 17.1 SE 8 10 1022.2 - 0.0 - - - - - - -
15/07:30pm 17.0 SSE 8 10 1022.0 - 0.0 - - - - - - -
15/07:00pm 17.3 S 9 11 1022.1 - 0.0 - - - - - - -
15/06:30pm 17.5 S 10 11 1021.9 - 0.0 - - - - - - -
15/06:00pm 17.9 S 9 11 1021.6 - 0.0 - - - - - - -
15/05:30pm 18.4 S 8 11 1021.6 - 0.0 - - - - - - -
15/05:00pm 18.6 S 8 10 1021.8 - 0.0 - - - - - - -
15/04:30pm 19.2 SSE 8 10 1021.8 - 0.0 - - - - - - -
15/04:00pm 19.0 SSE 7 9 1022.0 - 0.0 - - - - - - -
15/03:30pm 19.4 S 7 8 1022.2 - 0.0 - - - - - - -
15/03:00pm 19.2 S 6 7 1022.1 - 0.0 - - - - - - -
15/02:30pm 19.4 NNE 3 5 1022.5 - 0.0 - - - - - - -
15/02:00pm 19.2 E 6 9 1022.4 - 0.0 - - - - - - -
15/01:30pm 19.4 E 8 11 1022.8 - 0.0 - - - - - - -
15/01:00pm 19.6 E 9 11 1023.2 - 0.0 - - - - - - -
15/12:30pm 19.3 E 10 13 1023.5 - 0.0 - - - - - - -
15/12:00pm 19.1 E 11 14 1023.7 - 0.0 - - - - - - -
15/11:30am 19.2 E 13 15 1023.8 - 0.0 - - - - - - -
15/11:00am 18.9 E 13 16 1024.2 - 0.0 - - - - - - -
15/10:30am 18.9 E 13 16 1024.3 - 0.0 - - - - - - -
15/10:00am 18.7 ESE 13 16 1024.5 - 0.0 - - - - - - -
15/09:30am 18.2 ESE 13 16 1024.3 - 0.0 - - - - - - -
15/09:00am 17.6 ESE 12 15 1024.4 - 0.0 - - - - - - -
15/08:30am 17.1 ESE 13 17 1024.2 - 0.0 - - - - - - -
15/08:00am 16.2 ESE 13 16 1024.1 - 0.0 - - - - - - -
15/07:30am 15.9 ESE 12 15 1023.8 - 0.0 - - - - - - -
15/07:00am 15.9 ESE 14 16 1023.6 - 0.0 - - - - - - -
15/06:30am 15.8 ESE 13 17 1023.6 - 0.0 - - - - - - -
15/06:00am 15.7 ESE 13 16 1023.7 - 0.0 - - - - - - -
15/05:30am 15.9 SE 13 16 1023.8 - 0.0 - - - - - - -
15/05:00am 16.0 SE 14 17 1023.7 - 0.0 - - - - - - -
15/04:30am 16.0 SE 15 18 1023.6 - 0.0 - - - - - - -
15/04:00am 15.9 ESE 15 19 1023.5 - 0.0 - - - - - - -
15/03:30am 16.0 ESE 16 19 1023.5 - 0.0 - - - - - - -
15/03:00am 16.3 ESE 16 21 1023.8 - 0.0 - - - - - - -
15/02:30am 16.2 SE 15 19 1024.0 - 0.0 - - - - - - -
15/02:00am 15.9 ESE 15 18 1024.1 - 0.0 - - - - - - -
15/01:30am 15.9 ESE 16 19 1024.1 - 0.0 - - - - - - -
15/01:00am 15.8 SE 15 18 1024.1 - 0.0 - - - - - - -
15/12:30am 16.1 SE 16 19 1024.0 - 0.0 - - - - - - -
15/12:00am 16.1 SE 15 18 1024.1 - 0.0 - - - - - - -
 
Date/Time
EST
Temp

°C
Wind Pressure Rain
since 9am
mm
Weather Cloud Vis
km
Sea
Height
m
Swell
Dir
 
Speed
knots
Gust
knots
hPa Trend Height
m
Period
s
Dir
14/11:30pm 16.0 SE 14 17 1024.3 - 0.0 - - - - - - -
14/11:00pm 16.1 SE 15 17 1024.4 - 0.0 - - - - - - -
14/10:30pm 16.4 SSE 15 18 1024.7 - 0.0 - - - - - - -
14/10:00pm 16.4 SE 17 20 1024.5 - 0.0 - - - - - - -
14/09:30pm 16.6 SSE 17 20 1024.2 - 0.0 - - - - - - -
14/09:00pm 16.7 SSE 17 21 1024.2 - 0.0 - - - - - - -
14/08:30pm 16.7 SE 17 21 1024.3 - 0.0 - - - - - - -
14/08:00pm 16.8 SSE 18 23 1024.1 - 0.0 - - - - - - -
14/07:30pm 16.9 SSE 19 23 1023.8 - 0.0 - - - - - - -
14/07:00pm 17.0 SSE 19 23 1023.5 - 0.0 - - - - - - -
14/06:30pm 17.2 SSE 18 22 1023.2 - 0.0 - - - - - - -
14/06:00pm 17.6 SSE 19 25 1022.8 - 0.0 - - - - - - -
14/05:30pm 18.0 SSE 18 22 1022.8 - 0.0 - - - - - - -
14/05:00pm 18.2 SSE 18 22 1022.8 - 0.0 - - - - - - -
14/04:30pm 18.7 SSE 17 22 1022.7 - 0.0 - - - - - - -
14/04:00pm 19.3 SSE 16 21 1022.9 - 0.0 - - - - - - -
14/03:30pm 18.9 SSE 17 20 1022.8 - 0.0 - - - - - - -
14/03:00pm 19.4 SSE 16 19 1023.0 - 0.0 - - - - - - -
14/02:30pm 19.4 SSE 15 18 1022.8 - 0.0 - - - - - - -
14/02:00pm 20.3 SSE 13 16 1022.8 - 0.0 - - - - - - -
14/01:30pm 19.7 SSE 13 16 1023.1 - 0.0 - - - - - - -
14/01:00pm 20.5 SSE 10 12 1023.5 - 0.0 - - - - - - -
14/12:30pm 20.0 SSE 11 14 1023.7 - 0.0 - - - - - - -
14/12:00pm 20.3 SE 13 16 1023.9 - 0.0 - - - - - - -
14/11:30am 19.7 SE 15 18 1023.9 - 0.0 - - - - - - -
14/11:00am 19.0 SE 15 17 1024.2 - 0.0 - - - - - - -
14/10:30am 18.8 SE 15 18 1024.4 - 0.0 - - - - - - -
14/10:00am 18.1 SE 15 18 1024.5 - 0.0 - - - - - - -
14/09:30am 17.8 SE 16 19 1024.3 - 0.0 - - - - - - -
14/09:00am 17.3 SE 17 20 1024.3 - 0.0 - - - - - - -
14/08:30am 16.7 SE 16 20 1024.1 - 0.0 - - - - - - -
14/08:00am 16.6 SE 17 19 1023.8 - 0.0 - - - - - - -
14/07:30am 16.5 SE 16 20 1023.4 - 0.0 - - - - - - -
14/07:00am 16.5 SE 16 19 1023.4 - 0.0 - - - - - - -
14/06:30am 16.5 SE 16 19 1023.2 - 0.0 - - - - - - -
14/06:00am 16.4 SE 17 22 1023.2 - 0.0 - - - - - - -
14/05:30am 16.6 SE 16 19 1023.1 - 0.0 - - - - - - -
14/05:00am 16.5 SSE 15 19 1022.9 - 0.0 - - - - - - -
14/04:30am 16.3 SSE 15 19 1022.8 - 0.0 - - - - - - -
14/04:00am 16.2 SSE 14 16 1022.7 - 0.0 - - - - - - -
14/03:30am 16.4 SSE 15 19 1022.6 - 0.0 - - - - - - -
14/03:00am 15.9 SSE 13 17 1022.9 - 0.0 - - - - - - -
14/02:30am 15.8 SSE 15 19 1023.0 - 0.0 - - - - - - -
14/02:00am 15.5 SE 15 19 1023.0 - 0.0 - - - - - - -
14/01:30am 15.2 SE 17 20 1023.0 - 0.0 - - - - - - -

Other Formats:

Comma delimited format used in spreadsheet applications
http://www.bom.gov.au/fwo/IDT60701/IDT60701.94804.axf

JavaScript Object Notation format (JSON) in row-major order
http://www.bom.gov.au/fwo/IDT60701/IDT60701.94804.json